sensor_id;sensor_type;location;lat;lon;timestamp;pressure;altitude;pressure_sealevel;temperature;humidity
3917;BME280;1973;50.518;7.318;2023-07-24T00:01:06;99973.75;;;20.62;100.00
3917;BME280;1973;50.518;7.318;2023-07-24T00:03:32;99974.91;;;20.61;100.00
3917;BME280;1973;50.518;7.318;2023-07-24T00:05:59;99981.34;;;20.62;100.00
3917;BME280;1973;50.518;7.318;2023-07-24T00:08:26;99975.22;;;20.60;100.00
3917;BME280;1973;50.518;7.318;2023-07-24T00:10:52;99977.16;;;20.59;100.00
3917;BME280;1973;50.518;7.318;2023-07-24T00:13:19;99973.25;;;20.60;100.00
3917;BME280;1973;50.518;7.318;2023-07-24T00:15:46;99972.13;;;20.61;100.00
3917;BME280;1973;50.518;7.318;2023-07-24T00:18:12;99974.59;;;20.63;100.00
3917;BME280;1973;50.518;7.318;2023-07-24T00:20:38;99970.97;;;20.62;100.00
3917;BME280;1973;50.518;7.318;2023-07-24T00:23:05;99969.00;;;20.63;100.00
3917;BME280;1973;50.518;7.318;2023-07-24T00:25:31;99958.66;;;20.63;100.00
3917;BME280;1973;50.518;7.318;2023-07-24T00:27:58;99963.13;;;20.64;100.00
3917;BME280;1973;50.518;7.318;2023-07-24T00:30:24;99952.78;;;20.65;100.00
3917;BME280;1973;50.518;7.318;2023-07-24T00:32:51;99950.25;;;20.63;100.00
3917;BME280;1973;50.518;7.318;2023-07-24T00:35:18;99956.97;;;20.62;100.00
3917;BME280;1973;50.518;7.318;2023-07-24T00:37:44;99951.72;;;20.61;100.00
3917;BME280;1973;50.518;7.318;2023-07-24T00:40:11;99952.00;;;20.59;100.00
3917;BME280;1973;50.518;7.318;2023-07-24T00:42:37;99954.28;;;20.57;100.00
3917;BME280;1973;50.518;7.318;2023-07-24T00:45:04;99955.69;;;20.55;100.00
3917;BME280;1973;50.518;7.318;2023-07-24T00:47:31;99957.69;;;20.54;100.00
3917;BME280;1973;50.518;7.318;2023-07-24T00:49:58;99948.75;;;20.52;100.00
3917;BME280;1973;50.518;7.318;2023-07-24T00:52:25;99947.91;;;20.52;100.00
3917;BME280;1973;50.518;7.318;2023-07-24T00:54:53;99943.16;;;20.52;100.00
3917;BME280;1973;50.518;7.318;2023-07-24T00:57:20;99935.88;;;20.51;100.00
3917;BME280;1973;50.518;7.318;2023-07-24T00:59:46;99943.47;;;20.51;100.00
3917;BME280;1973;50.518;7.318;2023-07-24T01:02:13;99946.28;;;20.51;100.00
3917;BME280;1973;50.518;7.318;2023-07-24T01:04:39;99941.47;;;20.51;100.00
3917;BME280;1973;50.518;7.318;2023-07-24T01:07:06;99937.56;;;20.52;100.00
3917;BME280;1973;50.518;7.318;2023-07-24T01:09:33;99923.28;;;20.54;100.00
3917;BME280;1973;50.518;7.318;2023-07-24T01:12:18;99919.34;;;20.55;100.00
3917;BME280;1973;50.518;7.318;2023-07-24T01:14:49;99918.53;;;20.54;100.00
3917;BME280;1973;50.518;7.318;2023-07-24T01:17:22;99904.00;;;20.52;100.00
3917;BME280;1973;50.518;7.318;2023-07-24T01:19:54;99901.53;;;20.51;100.00
3917;BME280;1973;50.518;7.318;2023-07-24T01:22:25;99906.06;;;20.47;100.00
3917;BME280;1973;50.518;7.318;2023-07-24T01:27:44;99897.50;;;20.38;100.00
3917;BME280;1973;50.518;7.318;2023-07-24T01:30:14;99898.63;;;20.37;100.00
3917;BME280;1973;50.518;7.318;2023-07-24T01:32:40;99894.19;;;20.36;100.00
3917;BME280;1973;50.518;7.318;2023-07-24T01:35:07;99893.38;;;20.35;100.00
3917;BME280;1973;50.518;7.318;2023-07-24T01:37:35;99871.56;;;20.32;100.00
3917;BME280;1973;50.518;7.318;2023-07-24T01:40:02;99873.03;;;20.30;100.00
3917;BME280;1973;50.518;7.318;2023-07-24T01:42:29;99875.31;;;20.28;100.00
3917;BME280;1973;50.518;7.318;2023-07-24T01:44:55;99875.31;;;20.28;100.00
3917;BME280;1973;50.518;7.318;2023-07-24T01:47:22;99876.16;;;20.23;100.00
3917;BME280;1973;50.518;7.318;2023-07-24T01:49:49;99880.09;;;20.22;100.00
3917;BME280;1973;50.518;7.318;2023-07-24T01:52:15;99886.00;;;20.21;100.00
3917;BME280;1973;50.518;7.318;2023-07-24T01:54:41;99891.59;;;20.21;100.00
3917;BME280;1973;50.518;7.318;2023-07-24T01:57:08;99901.94;;;20.20;100.00
3917;BME280;1973;50.518;7.318;2023-07-24T01:59:35;99896.03;;;20.22;100.00
3917;BME280;1973;50.518;7.318;2023-07-24T02:02:02;99895.50;;;20.20;100.00
3917;BME280;1973;50.518;7.318;2023-07-24T02:04:28;99898.31;;;20.20;100.00
3917;BME280;1973;50.518;7.318;2023-07-24T02:06:55;99896.03;;;20.22;100.00
3917;BME280;1973;50.518;7.318;2023-07-24T02:09:21;99887.88;;;20.25;100.00
3917;BME280;1973;50.518;7.318;2023-07-24T02:11:48;99889.84;;;20.25;100.00
3917;BME280;1973;50.518;7.318;2023-07-24T02:14:15;99887.88;;;20.25;100.00
3917;BME280;1973;50.518;7.318;2023-07-24T02:16:43;99888.69;;;20.26;100.00
3917;BME280;1973;50.518;7.318;2023-07-24T02:19:09;99881.47;;;20.25;100.00
3917;BME280;1973;50.518;7.318;2023-07-24T02:21:36;99875.03;;;20.24;100.00
3917;BME280;1973;50.518;7.318;2023-07-24T02:24:03;99866.94;;;20.23;100.00
3917;BME280;1973;50.518;7.318;2023-07-24T02:26:29;99876.47;;;20.22;100.00
3917;BME280;1973;50.518;7.318;2023-07-24T02:28:56;99885.78;;;20.17;100.00
3917;BME280;1973;50.518;7.318;2023-07-24T02:31:23;99892.78;;;20.15;100.00
3917;BME280;1973;50.518;7.318;2023-07-24T02:33:50;99895.34;;;20.11;100.00
3917;BME280;1973;50.518;7.318;2023-07-24T02:36:16;99895.13;;;20.08;100.00
3917;BME280;1973;50.518;7.318;2023-07-24T02:38:43;99890.66;;;20.07;100.00
3917;BME280;1973;50.518;7.318;2023-07-24T02:41:09;99880.06;;;20.04;100.00
3917;BME280;1973;50.518;7.318;2023-07-24T02:43:36;99875.94;;;20.01;100.00
3917;BME280;1973;50.518;7.318;2023-07-24T02:46:02;99867.84;;;20.00;100.00
3917;BME280;1973;50.518;7.318;2023-07-24T02:48:29;99851.91;;;20.00;100.00
3917;BME280;1973;50.518;7.318;2023-07-24T02:50:55;99853.88;;;20.00;100.00
3917;BME280;1973;50.518;7.318;2023-07-24T02:53:22;99836.81;;;20.01;100.00
3917;BME280;1973;50.518;7.318;2023-07-24T02:55:48;99828.72;;;20.00;100.00
3917;BME280;1973;50.518;7.318;2023-07-24T02:58:15;99810.31;;;19.99;100.00
3917;BME280;1973;50.518;7.318;2023-07-24T03:00:42;99804.50;;;19.95;100.00
3917;BME280;1973;50.518;7.318;2023-07-24T03:03:09;99808.19;;;19.90;100.00
3917;BME280;1973;50.518;7.318;2023-07-24T03:05:35;99790.34;;;19.86;100.00
3917;BME280;1973;50.518;7.318;2023-07-24T03:08:02;99797.69;;;19.82;100.00
3917;BME280;1973;50.518;7.318;2023-07-24T03:10:29;99801.09;;;19.79;100.00
3917;BME280;1973;50.518;7.318;2023-07-24T03:12:55;99814.50;;;19.77;100.00
3917;BME280;1973;50.518;7.318;2023-07-24T03:15:22;99816.78;;;19.75;100.00
3917;BME280;1973;50.518;7.318;2023-07-24T03:17:48;99825.44;;;19.74;100.00
3917;BME280;1973;50.518;7.318;2023-07-24T03:20:17;99819.03;;;19.73;100.00
3917;BME280;1973;50.518;7.318;2023-07-24T03:22:44;99809.28;;;19.71;100.00
3917;BME280;1973;50.518;7.318;2023-07-24T03:25:11;99801.47;;;19.73;100.00
3917;BME280;1973;50.518;7.318;2023-07-24T03:27:37;99788.00;;;19.75;100.00
3917;BME280;1973;50.518;7.318;2023-07-24T03:30:04;99793.81;;;19.78;100.00
3917;BME280;1973;50.518;7.318;2023-07-24T03:32:31;99790.19;;;19.78;100.00
3917;BME280;1973;50.518;7.318;2023-07-24T03:34:58;99789.91;;;19.79;100.00
3917;BME280;1973;50.518;7.318;2023-07-24T03:37:24;99788.78;;;19.80;100.00
3917;BME280;1973;50.518;7.318;2023-07-24T03:39:51;99780.69;;;19.79;100.00
3917;BME280;1973;50.518;7.318;2023-07-24T03:42:26;99781.22;;;19.81;100.00
3917;BME280;1973;50.518;7.318;2023-07-24T03:44:53;99777.06;;;19.78;100.00
3917;BME280;1973;50.518;7.318;2023-07-24T03:47:20;99770.03;;;19.81;100.00
3917;BME280;1973;50.518;7.318;2023-07-24T03:49:47;99769.44;;;19.84;100.00
3917;BME280;1973;50.518;7.318;2023-07-24T03:52:13;99766.34;;;19.85;100.00
3917;BME280;1973;50.518;7.318;2023-07-24T03:54:40;99763.88;;;19.84;100.00
3917;BME280;1973;50.518;7.318;2023-07-24T03:57:06;99770.25;;;19.84;100.00
3917;BME280;1973;50.518;7.318;2023-07-24T03:59:33;99777.50;;;19.85;100.00
3917;BME280;1973;50.518;7.318;2023-07-24T04:01:59;99773.59;;;19.86;100.00
3917;BME280;1973;50.518;7.318;2023-07-24T04:04:26;99764.09;;;19.87;100.00
3917;BME280;1973;50.518;7.318;2023-07-24T04:06:52;99768.84;;;19.87;100.00
3917;BME280;1973;50.518;7.318;2023-07-24T04:09:19;99768.22;;;19.90;100.00
3917;BME280;1973;50.518;7.318;2023-07-24T04:11:45;99762.94;;;19.88;100.00
3917;BME280;1973;50.518;7.318;2023-07-24T04:14:12;99762.94;;;19.88;100.00
3917;BME280;1973;50.518;7.318;2023-07-24T04:16:38;99771.31;;;19.88;100.00
3917;BME280;1973;50.518;7.318;2023-07-24T04:19:05;99772.47;;;19.87;100.00
3917;BME280;1973;50.518;7.318;2023-07-24T04:21:32;99774.09;;;19.88;100.00
3917;BME280;1973;50.518;7.318;2023-07-24T04:23:58;99780.47;;;19.94;100.00
3917;BME280;1973;50.518;7.318;2023-07-24T04:26:25;99781.31;;;19.95;100.00
3917;BME280;1973;50.518;7.318;2023-07-24T04:28:51;99782.38;;;19.99;100.00
3917;BME280;1973;50.518;7.318;2023-07-24T04:31:18;99789.59;;;20.00;100.00
3917;BME280;1973;50.518;7.318;2023-07-24T04:33:44;99787.63;;;20.00;100.00
3917;BME280;1973;50.518;7.318;2023-07-24T04:36:11;99796.25;;;20.04;100.00
3917;BME280;1973;50.518;7.318;2023-07-24T04:38:37;99797.28;;;20.08;100.00
3917;BME280;1973;50.518;7.318;2023-07-24T04:41:04;99807.03;;;20.10;100.00
3917;BME280;1973;50.518;7.318;2023-07-24T04:43:30;99819.59;;;20.13;100.00
3917;BME280;1973;50.518;7.318;2023-07-24T04:45:57;99815.06;;;20.17;100.00
3917;BME280;1973;50.518;7.318;2023-07-24T04:48:23;99818.91;;;20.21;100.00
3917;BME280;1973;50.518;7.318;2023-07-24T04:50:54;99818.31;;;20.24;100.00
3917;BME280;1973;50.518;7.318;2023-07-24T04:53:24;99816.84;;;20.26;100.00
3917;BME280;1973;50.518;7.318;2023-07-24T04:55:50;99818.78;;;20.31;100.00
3917;BME280;1973;50.518;7.318;2023-07-24T04:58:17;99814.25;;;20.35;100.00
3917;BME280;1973;50.518;7.318;2023-07-24T05:00:43;99814.47;;;20.38;100.00
3917;BME280;1973;50.518;7.318;2023-07-24T05:03:09;99814.06;;;20.45;100.00
3917;BME280;1973;50.518;7.318;2023-07-24T05:05:38;99806.44;;;20.51;100.00
3917;BME280;1973;50.518;7.318;2023-07-24T05:08:08;99798.16;;;20.59;100.00
3917;BME280;1973;50.518;7.318;2023-07-24T05:10:36;99797.75;;;20.66;100.00
3917;BME280;1973;50.518;7.318;2023-07-24T05:13:02;99788.78;;;20.69;100.00
3917;BME280;1973;50.518;7.318;2023-07-24T05:15:29;99796.22;;;20.73;100.00
3917;BME280;1973;50.518;7.318;2023-07-24T05:17:55;99803.41;;;20.79;100.00
3917;BME280;1973;50.518;7.318;2023-07-24T05:20:22;99810.56;;;20.85;100.00
3917;BME280;1973;50.518;7.318;2023-07-24T05:22:48;99818.75;;;20.96;100.00
3917;BME280;1973;50.518;7.318;2023-07-24T05:25:15;99809.66;;;21.04;100.00
3917;BME280;1973;50.518;7.318;2023-07-24T05:27:42;99815.06;;;21.14;100.00
3917;BME280;1973;50.518;7.318;2023-07-24T05:30:11;99807.94;;;21.21;100.00
3917;BME280;1973;50.518;7.318;2023-07-24T05:32:38;99803.28;;;21.30;100.00
3917;BME280;1973;50.518;7.318;2023-07-24T05:35:04;99787.72;;;21.38;100.00
3917;BME280;1973;50.518;7.318;2023-07-24T05:37:31;99787.31;;;21.45;100.00
3917;BME280;1973;50.518;7.318;2023-07-24T05:39:58;99782.44;;;21.50;100.00
3917;BME280;1973;50.518;7.318;2023-07-24T05:42:24;99781.47;;;21.55;100.00
3917;BME280;1973;50.518;7.318;2023-07-24T05:44:51;99787.28;;;21.58;100.00
3917;BME280;1973;50.518;7.318;2023-07-24T05:47:17;99788.84;;;21.64;100.00
3917;BME280;1973;50.518;7.318;2023-07-24T05:49:44;99789.97;;;21.63;100.00
3917;BME280;1973;50.518;7.318;2023-07-24T05:52:10;99797.25;;;21.64;100.00
3917;BME280;1973;50.518;7.318;2023-07-24T05:54:37;99789.97;;;21.63;100.00
3917;BME280;1973;50.518;7.318;2023-07-24T05:57:03;99798.91;;;21.65;100.00
3917;BME280;1973;50.518;7.318;2023-07-24T05:59:30;99799.94;;;21.69;100.00
3917;BME280;1973;50.518;7.318;2023-07-24T06:01:56;99798.69;;;21.75;100.00
3917;BME280;1973;50.518;7.318;2023-07-24T06:04:23;99796.09;;;21.79;100.00
3917;BME280;1973;50.518;7.318;2023-07-24T06:06:50;99806.56;;;21.73;100.00
3917;BME280;1973;50.518;7.318;2023-07-24T06:09:16;99802.00;;;21.77;100.00
3917;BME280;1973;50.518;7.318;2023-07-24T06:11:47;99806.56;;;21.73;100.00
3917;BME280;1973;50.518;7.318;2023-07-24T06:14:13;99809.91;;;21.75;100.00
3917;BME280;1973;50.518;7.318;2023-07-24T06:16:40;99797.56;;;21.76;100.00
3917;BME280;1973;50.518;7.318;2023-07-24T06:19:07;99798.88;;;21.79;100.00
3917;BME280;1973;50.518;7.318;2023-07-24T06:21:33;99795.16;;;21.83;100.00
3917;BME280;1973;50.518;7.318;2023-07-24T06:24:00;99787.03;;;21.82;100.00
3917;BME280;1973;50.518;7.318;2023-07-24T06:26:26;99787.44;;;21.89;100.00
3917;BME280;1973;50.518;7.318;2023-07-24T06:28:53;99785.41;;;21.95;100.00
3917;BME280;1973;50.518;7.318;2023-07-24T06:31:20;99782.47;;;22.00;100.00
3917;BME280;1973;50.518;7.318;2023-07-24T06:33:46;99784.63;;;22.03;100.00
3917;BME280;1973;50.518;7.318;2023-07-24T06:36:13;99772.28;;;22.04;100.00
3917;BME280;1973;50.518;7.318;2023-07-24T06:38:39;99779.28;;;22.15;100.00
3917;BME280;1973;50.518;7.318;2023-07-24T06:41:08;99775.34;;;22.16;100.00
3917;BME280;1973;50.518;7.318;2023-07-24T06:43:34;99783.22;;;22.14;100.00
3917;BME280;1973;50.518;7.318;2023-07-24T06:46:01;99778.91;;;22.08;100.00
3917;BME280;1973;50.518;7.318;2023-07-24T06:48:27;99780.19;;;22.02;100.00
3917;BME280;1973;50.518;7.318;2023-07-24T06:50:54;99776.69;;;22.18;100.00
3917;BME280;1973;50.518;7.318;2023-07-24T06:53:21;99772.03;;;22.14;100.00
3917;BME280;1973;50.518;7.318;2023-07-24T06:55:47;99763.31;;;22.15;100.00
3917;BME280;1973;50.518;7.318;2023-07-24T06:58:14;99762.47;;;22.15;100.00
3917;BME280;1973;50.518;7.318;2023-07-24T07:00:40;99765.47;;;22.18;100.00
3917;BME280;1973;50.518;7.318;2023-07-24T07:03:07;99763.88;;;22.26;100.00
3917;BME280;1973;50.518;7.318;2023-07-24T07:05:33;99770.56;;;22.16;100.00
3917;BME280;1973;50.518;7.318;2023-07-24T07:08:00;99758.91;;;22.23;100.00
3917;BME280;1973;50.518;7.318;2023-07-24T07:10:26;99774.44;;;22.29;100.00
3917;BME280;1973;50.518;7.318;2023-07-24T07:12:53;99760.31;;;22.34;100.00
3917;BME280;1973;50.518;7.318;2023-07-24T07:15:20;99769.22;;;22.36;100.00
3917;BME280;1973;50.518;7.318;2023-07-24T07:17:46;99766.13;;;22.38;100.00
3917;BME280;1973;50.518;7.318;2023-07-24T07:20:13;99778.66;;;22.40;100.00
3917;BME280;1973;50.518;7.318;2023-07-24T07:22:39;99782.75;;;22.34;100.00
3917;BME280;1973;50.518;7.318;2023-07-24T07:25:06;99764.25;;;22.33;100.00
3917;BME280;1973;50.518;7.318;2023-07-24T07:27:33;99753.03;;;22.33;100.00
3917;BME280;1973;50.518;7.318;2023-07-24T07:29:59;99741.19;;;22.36;100.00
3917;BME280;1973;50.518;7.318;2023-07-24T07:32:26;99745.16;;;22.35;100.00
3917;BME280;1973;50.518;7.318;2023-07-24T07:34:53;99741.69;;;22.38;100.00
3917;BME280;1973;50.518;7.318;2023-07-24T07:37:20;99730.97;;;22.40;100.00
3917;BME280;1973;50.518;7.318;2023-07-24T07:39:46;99734.94;;;22.39;100.00
3917;BME280;1973;50.518;7.318;2023-07-24T07:42:13;99735.75;;;22.40;100.00
3917;BME280;1973;50.518;7.318;2023-07-24T07:44:45;99728.03;;;22.45;100.00
3917;BME280;1973;50.518;7.318;2023-07-24T07:47:11;99725.13;;;22.50;100.00
3917;BME280;1973;50.518;7.318;2023-07-24T07:49:38;99718.22;;;22.56;100.00
3917;BME280;1973;50.518;7.318;2023-07-24T07:52:09;99720.88;;;22.61;100.00
3917;BME280;1973;50.518;7.318;2023-07-24T07:54:35;99732.31;;;22.65;100.00
3917;BME280;1973;50.518;7.318;2023-07-24T07:57:03;99735.41;;;22.63;100.00
3917;BME280;1973;50.518;7.318;2023-07-24T07:59:30;99747.28;;;22.60;100.00
3917;BME280;1973;50.518;7.318;2023-07-24T08:01:57;99745.63;;;22.59;100.00
3917;BME280;1973;50.518;7.318;2023-07-24T08:04:23;99751.50;;;22.71;100.00
3917;BME280;1973;50.518;7.318;2023-07-24T08:06:50;99741.78;;;22.77;100.00
3917;BME280;1973;50.518;7.318;2023-07-24T08:09:16;99735.03;;;22.78;100.00
3917;BME280;1973;50.518;7.318;2023-07-24T08:11:43;99725.19;;;22.90;100.00
3917;BME280;1973;50.518;7.318;2023-07-24T08:14:10;99716.47;;;23.00;100.00
3917;BME280;1973;50.518;7.318;2023-07-24T08:16:37;99720.81;;;23.06;100.00
3917;BME280;1973;50.518;7.318;2023-07-24T08:19:03;99724.44;;;23.15;100.00
3917;BME280;1973;50.518;7.318;2023-07-24T08:21:30;99709.09;;;23.21;100.00
3917;BME280;1973;50.518;7.318;2023-07-24T08:23:56;99705.16;;;23.31;100.00
3917;BME280;1973;50.518;7.318;2023-07-24T08:26:24;99715.94;;;23.37;100.00
3917;BME280;1973;50.518;7.318;2023-07-24T08:28:52;99713.00;;;23.42;100.00
3917;BME280;1973;50.518;7.318;2023-07-24T08:31:19;99714.66;;;23.52;100.00
3917;BME280;1973;50.518;7.318;2023-07-24T08:33:46;99717.78;;;23.50;100.00
3917;BME280;1973;50.518;7.318;2023-07-24T08:36:12;99717.97;;;23.45;100.00
3917;BME280;1973;50.518;7.318;2023-07-24T08:38:40;99717.13;;;23.45;100.00
3917;BME280;1973;50.518;7.318;2023-07-24T08:41:09;99723.06;;;23.43;100.00
3917;BME280;1973;50.518;7.318;2023-07-24T08:43:39;99713.66;;;23.48;100.00
3917;BME280;1973;50.518;7.318;2023-07-24T08:46:06;99711.19;;;23.55;100.00
3917;BME280;1973;50.518;7.318;2023-07-24T08:48:41;99704.94;;;23.66;97.56
3917;BME280;1973;50.518;7.318;2023-07-24T08:51:09;99695.00;;;23.77;98.51
3917;BME280;1973;50.518;7.318;2023-07-24T08:53:37;99701.16;;;23.80;97.50
3917;BME280;1973;50.518;7.318;2023-07-24T08:56:09;99710.41;;;23.71;96.43
3917;BME280;1973;50.518;7.318;2023-07-24T08:58:36;99708.41;;;23.63;97.47
3917;BME280;1973;50.518;7.318;2023-07-24T09:01:03;99699.81;;;23.68;97.95
3917;BME280;1973;50.518;7.318;2023-07-24T09:03:31;99688.56;;;23.68;98.17
3917;BME280;1973;50.518;7.318;2023-07-24T09:05:58;99688.91;;;23.75;97.23
3917;BME280;1973;50.518;7.318;2023-07-24T09:08:38;99690.72;;;23.71;97.07
3917;BME280;1973;50.518;7.318;2023-07-24T09:11:06;99691.72;;;23.75;97.01
3917;BME280;1973;50.518;7.318;2023-07-24T09:13:35;99684.44;;;23.74;96.01
3917;BME280;1973;50.518;7.318;2023-07-24T09:16:02;99681.13;;;23.81;96.20
3917;BME280;1973;50.518;7.318;2023-07-24T09:18:42;99675.81;;;23.88;94.70
3917;BME280;1973;50.518;7.318;2023-07-24T09:21:10;99656.47;;;24.04;94.62
3917;BME280;1973;50.518;7.318;2023-07-24T09:23:38;99652.34;;;24.01;91.73
3917;BME280;1973;50.518;7.318;2023-07-24T09:26:09;99645.22;;;24.04;90.00
3917;BME280;1973;50.518;7.318;2023-07-24T09:28:36;99640.59;;;24.08;88.53
3917;BME280;1973;50.518;7.318;2023-07-24T09:31:03;99646.38;;;24.03;86.72
3917;BME280;1973;50.518;7.318;2023-07-24T09:33:36;99631.50;;;24.19;84.72
3917;BME280;1973;50.518;7.318;2023-07-24T09:36:04;99642.22;;;24.26;81.75
3917;BME280;1973;50.518;7.318;2023-07-24T09:38:31;99639.41;;;24.35;80.78
3917;BME280;1973;50.518;7.318;2023-07-24T09:41:00;99637.03;;;24.45;79.59
3917;BME280;1973;50.518;7.318;2023-07-24T09:43:28;99629.06;;;24.56;77.90
3917;BME280;1973;50.518;7.318;2023-07-24T09:45:58;99621.63;;;24.51;75.93
3917;BME280;1973;50.518;7.318;2023-07-24T09:48:26;99610.72;;;24.41;74.15
3917;BME280;1973;50.518;7.318;2023-07-24T09:50:57;99620.53;;;24.35;76.16
3917;BME280;1973;50.518;7.318;2023-07-24T09:56:01;99618.28;;;24.58;74.13
3917;BME280;1973;50.518;7.318;2023-07-24T09:58:29;99617.19;;;24.42;76.23
3917;BME280;1973;50.518;7.318;2023-07-24T10:00:56;99616.66;;;24.48;74.81
3917;BME280;1973;50.518;7.318;2023-07-24T10:03:24;99614.31;;;24.50;74.13
3917;BME280;1973;50.518;7.318;2023-07-24T10:05:52;99625.28;;;24.43;70.30
3917;BME280;1973;50.518;7.318;2023-07-24T10:08:19;99615.31;;;24.54;70.03
3917;BME280;1973;50.518;7.318;2023-07-24T10:10:46;99606.50;;;24.64;67.89
3917;BME280;1973;50.518;7.318;2023-07-24T10:13:13;99614.22;;;24.85;65.60
3917;BME280;1973;50.518;7.318;2023-07-24T10:15:41;99599.25;;;24.93;63.61
3917;BME280;1973;50.518;7.318;2023-07-24T10:18:09;99605.50;;;24.98;62.97
3917;BME280;1973;50.518;7.318;2023-07-24T10:20:38;99615.84;;;25.15;60.59
3917;BME280;1973;50.518;7.318;2023-07-24T10:23:06;99613.81;;;24.95;59.69
3917;BME280;1973;50.518;7.318;2023-07-24T10:25:35;99612.31;;;24.97;59.57
3917;BME280;1973;50.518;7.318;2023-07-24T10:28:09;99602.69;;;24.98;59.16
3917;BME280;1973;50.518;7.318;2023-07-24T10:30:42;99620.53;;;25.11;59.29
3917;BME280;1973;50.518;7.318;2023-07-24T10:33:17;99613.81;;;24.95;59.96
3917;BME280;1973;50.518;7.318;2023-07-24T10:35:46;99607.72;;;24.93;61.91
3917;BME280;1973;50.518;7.318;2023-07-24T10:38:15;99619.59;;;24.98;62.35
3917;BME280;1973;50.518;7.318;2023-07-24T10:40:44;99614.50;;;24.92;61.77
3917;BME280;1973;50.518;7.318;2023-07-24T10:43:18;99609.06;;;24.87;62.23
3917;BME280;1973;50.518;7.318;2023-07-24T10:45:52;99599.72;;;24.95;62.10
3917;BME280;1973;50.518;7.318;2023-07-24T10:48:21;99599.41;;;24.96;62.30
3917;BME280;1973;50.518;7.318;2023-07-24T10:50:49;99585.75;;;25.07;60.20
3917;BME280;1973;50.518;7.318;2023-07-24T10:53:20;99596.53;;;25.05;58.09
3917;BME280;1973;50.518;7.318;2023-07-24T10:55:47;99584.72;;;25.32;56.76
3917;BME280;1973;50.518;7.318;2023-07-24T10:58:14;99590.13;;;25.66;57.52
3917;BME280;1973;50.518;7.318;2023-07-24T11:00:42;99609.78;;;25.54;54.63
3917;BME280;1973;50.518;7.318;2023-07-24T11:03:10;99587.50;;;25.41;54.32
3917;BME280;1973;50.518;7.318;2023-07-24T11:05:41;99578.25;;;25.94;53.13
3917;BME280;1973;50.518;7.318;2023-07-24T11:08:11;99576.41;;;26.10;50.38
3917;BME280;1973;50.518;7.318;2023-07-24T11:10:53;99562.06;;;26.15;49.73
3917;BME280;1973;50.518;7.318;2023-07-24T11:13:24;99562.34;;;26.22;48.57
3917;BME280;1973;50.518;7.318;2023-07-24T11:15:52;99558.63;;;26.30;49.46
3917;BME280;1973;50.518;7.318;2023-07-24T11:18:20;99553.09;;;26.46;49.26
3917;BME280;1973;50.518;7.318;2023-07-24T11:20:50;99550.84;;;26.39;49.11
3917;BME280;1973;50.518;7.318;2023-07-24T11:23:17;99551.78;;;26.31;49.09
3917;BME280;1973;50.518;7.318;2023-07-24T11:25:44;99543.75;;;26.21;49.62
3917;BME280;1973;50.518;7.318;2023-07-24T11:28:13;99551.34;;;26.41;49.13
3917;BME280;1973;50.518;7.318;2023-07-24T11:30:40;99536.03;;;26.54;48.66
3917;BME280;1973;50.518;7.318;2023-07-24T11:33:09;99524.94;;;26.98;48.71
3917;BME280;1973;50.518;7.318;2023-07-24T11:35:36;99509.34;;;27.28;48.24
3917;BME280;1973;50.518;7.318;2023-07-24T11:38:10;99494.81;;;27.42;47.07
3917;BME280;1973;50.518;7.318;2023-07-24T11:40:43;99534.84;;;27.16;46.24
3917;BME280;1973;50.518;7.318;2023-07-24T11:43:18;99518.41;;;27.34;46.53
3917;BME280;1973;50.518;7.318;2023-07-24T11:45:45;99500.91;;;27.56;46.34
3917;BME280;1973;50.518;7.318;2023-07-24T11:48:14;99504.09;;;27.42;46.24
3917;BME280;1973;50.518;7.318;2023-07-24T11:50:46;99498.22;;;27.47;46.37
3917;BME280;1973;50.518;7.318;2023-07-24T11:55:48;99494.38;;;27.83;46.45
3917;BME280;1973;50.518;7.318;2023-07-24T11:58:16;99505.34;;;27.29;47.19
3917;BME280;1973;50.518;7.318;2023-07-24T12:00:43;99497.19;;;27.00;48.01
3917;BME280;1973;50.518;7.318;2023-07-24T12:03:09;99519.34;;;26.37;49.49
3917;BME280;1973;50.518;7.318;2023-07-24T12:05:43;99491.59;;;26.27;50.16
3917;BME280;1973;50.518;7.318;2023-07-24T12:08:13;99492.47;;;26.07;50.86
3917;BME280;1973;50.518;7.318;2023-07-24T12:10:41;99509.13;;;26.00;51.82
3917;BME280;1973;50.518;7.318;2023-07-24T12:13:07;99525.84;;;25.60;61.66
3917;BME280;1973;50.518;7.318;2023-07-24T12:15:34;99557.94;;;25.26;75.37
3917;BME280;1973;50.518;7.318;2023-07-24T12:18:02;99570.50;;;25.08;79.35
3917;BME280;1973;50.518;7.318;2023-07-24T12:20:30;99577.41;;;24.90;82.31
3917;BME280;1973;50.518;7.318;2023-07-24T12:22:57;99580.47;;;25.26;82.59
3917;BME280;1973;50.518;7.318;2023-07-24T12:25:24;99582.66;;;25.20;85.95
3917;BME280;1973;50.518;7.318;2023-07-24T12:27:50;99577.38;;;25.40;84.42
3917;BME280;1973;50.518;7.318;2023-07-24T12:30:17;99570.03;;;25.47;86.76
3917;BME280;1973;50.518;7.318;2023-07-24T12:32:44;99569.03;;;25.52;87.01
3917;BME280;1973;50.518;7.318;2023-07-24T12:35:11;99568.34;;;25.46;86.36
3917;BME280;1973;50.518;7.318;2023-07-24T12:37:41;99560.22;;;25.53;86.61
3917;BME280;1973;50.518;7.318;2023-07-24T12:40:08;99558.47;;;25.82;86.50
3917;BME280;1973;50.518;7.318;2023-07-24T12:42:35;99561.75;;;25.84;84.19
3917;BME280;1973;50.518;7.318;2023-07-24T12:45:02;99552.13;;;25.85;85.52
3917;BME280;1973;50.518;7.318;2023-07-24T12:47:32;99549.34;;;26.09;83.17
3917;BME280;1973;50.518;7.318;2023-07-24T12:50:00;99549.56;;;26.61;79.82
3917;BME280;1973;50.518;7.318;2023-07-24T12:52:26;99545.94;;;26.85;77.05
3917;BME280;1973;50.518;7.318;2023-07-24T12:54:53;99532.78;;;27.29;74.25
3917;BME280;1973;50.518;7.318;2023-07-24T12:57:28;99527.19;;;27.44;69.60
3917;BME280;1973;50.518;7.318;2023-07-24T12:59:54;99531.94;;;27.40;69.66
3917;BME280;1973;50.518;7.318;2023-07-24T13:02:21;99512.03;;;27.65;66.33
3917;BME280;1973;50.518;7.318;2023-07-24T13:04:47;99552.44;;;27.37;66.73
3917;BME280;1973;50.518;7.318;2023-07-24T13:07:14;99520.97;;;26.99;66.71
3917;BME280;1973;50.518;7.318;2023-07-24T13:09:41;99513.47;;;27.31;64.94
3917;BME280;1973;50.518;7.318;2023-07-24T13:12:08;99503.88;;;27.35;65.32
3917;BME280;1973;50.518;7.318;2023-07-24T13:14:35;99492.91;;;27.46;64.69
3917;BME280;1973;50.518;7.318;2023-07-24T13:17:05;99489.34;;;27.77;61.86
3917;BME280;1973;50.518;7.318;2023-07-24T13:19:32;99496.38;;;27.83;61.40
3917;BME280;1973;50.518;7.318;2023-07-24T13:21:58;99499.94;;;27.80;61.68
3917;BME280;1973;50.518;7.318;2023-07-24T13:24:25;99526.28;;;27.40;58.67